ADDS METAR Data INFO
IDs: Format: Raw Decoded Include TAF

Data at: 0147 UTC 26 Feb 2018

K0R4 260135Z AUTO 01005KT 1 3/4SM +RA SCT005 BKN017 OVC025 13/13 A3006 RMK AO2 LTG DSNT NW P0037 T01330130
K0R4 260115Z AUTO 01010KT 7SM +RA SCT005 OVC013 13/13 A3003 RMK AO2 LTG DSNT W AND NW P0007 T01320127
K0R4 260055Z AUTO 36009KT 10SM -RA BKN005 OVC011 13/13 A3003 RMK AO2 LTG DSNT N P0002 T01310127
K0R4 260035Z AUTO 32012G16KT 10SM RA BKN005 OVC024 13/13 A3003 RMK AO2 LTG DSNT NW T01340129
K0R4 260015Z AUTO 02006KT 10SM OVC026 14/13 A3001 RMK AO2 LTG DSNT N T01400134
K0R4 252355Z AUTO 07006KT 10SM SCT005 OVC028 14/13 A3001 RMK AO2 P0001 60100 T01360131 10136 20123
K0R4 252335Z AUTO 06006KT 10SM SCT005 OVC032 13/13 A3001 RMK AO2 P0001 T01340130
K0R4 252315Z AUTO 06005KT 10SM -RA SCT005 BKN035 OVC042 13/13 A3002 RMK AO2 P0001 T01310129
K0R4 252255Z AUTO 05004KT 5SM +RA SCT009 SCT031 OVC046 13/13 A3002 RMK AO2 P0011 T01290125
K0R4 252235Z AUTO 05005KT 7SM RA BKN006 OVC050 13/12 A3002 RMK AO2 P0008 T01270123
K0R4 252215Z AUTO 00000KT 7SM RA OVC006 13/12 A3003 RMK AO2 P0002 T01250121
K0R4 252155Z AUTO 04006KT 7SM -RA OVC008 13/12 A3002 RMK AO2 P0004 T01250121
K0R4 252135Z AUTO 03006KT 10SM -RA BKN006 BKN012 OVC075 13/12 A3001 RMK AO2 P0002 T01250120
K0R4 252115Z AUTO 04007KT 10SM -RA BKN006 BKN031 OVC085 13/12 A3003 RMK AO2 P0001 T01250119
K0R4 252055Z AUTO 05007KT 7SM -RA SCT006 BKN050 OVC085 13/12 A3003 RMK AO2 P0020 60084 T01260121
K0R4 252035Z AUTO 02006KT 5SM RA BKN006 OVC010 13/12 A3006 RMK AO2 P0017 T01250121
K0R4 252015Z AUTO 01004KT 4SM +RA SCT004 BKN008 OVC048 12/12 A3007 RMK AO2 P0010 T01240120
K0R4 251955Z AUTO 02006KT 1 1/4SM +RA BKN006 BKN022 OVC037 12/12 A3007 RMK AO2 P0061 T01240120
K0R4 251935Z AUTO 01004KT 1 1/4SM +RA SCT011 BKN028 OVC038 13/12 A3008 RMK AO2 P0034 T01250120
K0R4 251915Z AUTO 11003KT 3SM +RA SCT007 BKN011 OVC035 13/12 A3008 RMK AO2 P0006 T01260118
K0R4 251855Z AUTO 29010KT 7SM +RA OVC008 13/12 A3009 RMK AO2 P0001 T01260116
K0R4 251835Z AUTO 03006KT 10SM OVC008 13/12 A3006 RMK AO2 T01270117
K0R4 251815Z AUTO 35005KT 10SM -RA BKN008 BKN025 OVC048 13/12 A3007 RMK AO2 T01270118
K0R4 251755Z AUTO 06007KT 10SM OVC008 13/12 A3007 RMK AO2 P0002 60017 T01270119 10128 20110
K0R4 251735Z AUTO 06007KT 7SM -RA OVC008 13/12 A3007 RMK AO2 LTG DSNT SW P0002 T01270120
K0R4 251715Z AUTO 04006KT 10SM RA OVC010 13/12 A3008 RMK AO2 T01280119
K0R4 251655Z AUTO 04006KT 10SM BKN010 BKN038 OVC110 13/12 A3007 RMK AO2 P0002 T01270118
K0R4 251635Z AUTO 04006KT 10SM -RA SCT038 SCT055 OVC110 13/12 A3007 RMK AO2 P0002 T01260117
K0R4 251615Z AUTO 05006KT 10SM -RA SCT039 BKN095 OVC110 13/12 A3008 RMK AO2 P0001 T01250115
K0R4 251555Z AUTO 08006KT 10SM RA SCT075 OVC100 12/11 A3009 RMK AO2 P0006 T01220114
K0R4 251535Z AUTO 08006KT 10SM RA SCT090 OVC110 12/11 A3009 RMK AO2 P0004 T01180109
K0R4 251515Z AUTO 09006KT 10SM -RA OVC110 12/11 A3011 RMK AO2 P0001 T01170106
K0R4 251455Z AUTO 07003KT 10SM -RA OVC110 12/10 A3012 RMK AO2 P0001 60007 T01160101
K0R4 251435Z AUTO 07004KT 10SM -RA OVC110 12/10 A3011 RMK AO2 P0001 T01150102
K0R4 251415Z AUTO 11004KT 10SM -RA OVC110 11/10 A3012 RMK AO2 T01120098
K0R4 251355Z AUTO 09008KT 10SM -DZ OVC110 11/10 A3011 RMK AO2 P0001 T01120096
K0R4 251335Z AUTO 05007KT 10SM -RA OVC110 11/10 A3011 RMK AO2 P0001 T01130097
K0R4 251315Z AUTO 08005KT 10SM -RA OVC120 11/10 A3010 RMK AO2 T01120097
K0R4 251255Z AUTO 09009KT 10SM -RA OVC110 11/10 A3010 RMK AO2 P0005 T01110096
K0R4 251235Z AUTO 07007KT 10SM -RA OVC110 11/10 A3009 RMK AO2 P0004 T01120100
K0R4 251215Z AUTO 08008KT 10SM RA OVC100 11/10 A3009 RMK AO2 P0002 T01100097
K0R4 251155Z AUTO 07007KT 10SM RA OVC100 11/10 A3009 RMK AO2 P0010 60046 70046 T01110096 10218 20110
K0R4 251135Z AUTO 05008KT 10SM RA OVC090 11/10 A3009 RMK AO2 P0007 T01110099
K0R4 251115Z AUTO 03011G16KT 10SM -RA SCT028 SCT047 OVC080 11/10 A3007 RMK AO2 P0003 T01110100
K0R4 251055Z AUTO 36011G22KT 4SM RA SCT008 BKN027 OVC070 11/10 A3010 RMK AO2 P0015 T01120100
K0R4 251035Z AUTO 02014G18KT 5SM RA BKN008 BKN015 OVC070 12/11 A3006 RMK AO2 P0010 T01150107
K0R4 251015Z AUTO 03013G16KT 7SM RA OVC008 12/11 A3006 RMK AO2 P0005 T01170110
K0R4 250955Z AUTO 01012G16KT 5SM +RA BKN008 BKN029 OVC050 12/11 A3005 RMK AO2 P0008 T01180109
K0R4 250935Z AUTO 02012G17KT 5SM RA SCT008 OVC042 12/11 A3003 RMK AO2 P0003 T01190110
K0R4 250915Z AUTO 02010KT 10SM -RA OVC042 12/11 A3003 RMK AO2 T01200108
K0R4 250855Z AUTO 02013G18KT 10SM RA SCT011 SCT029 OVC038 12/11 A3004 RMK AO2 LTG DSNT W P0010 60010 T01200108
K0R4 250835Z AUTO 01010KT 7SM RA BKN009 BKN015 OVC024 12/11 A3006 RMK AO2 P0010 T01200109
K0R4 250815Z AUTO 36011G18KT 5SM +RA SCT011 OVC022 12/11 A3003 RMK AO2 LTG DSNT NW P0005 T01210111
K0R4 250755Z AUTO 35015G28KT 10SM RA OVC016 13/10 A3002 RMK AO2 LTG DSNT W T01290104
K0R4 250735Z AUTO 34012G28KT 10SM VCTS BKN014 OVC022 15/10 A3001 RMK AO2 T01470102
K0R4 250715Z AUTO 19006KT 10SM OVC018 22/20 A2996 RMK AO2 LTG DSNT W T02160200
K0R4 250655Z AUTO 17011KT 10SM BKN017 OVC022 22/20 A2996 RMK AO2 T02150198
K0R4 250635Z AUTO 17012KT 10SM BKN021 BKN027 OVC110 22/20 A2996 RMK AO2 T02160199
K0R4 250615Z AUTO 17011G15KT 10SM SCT019 OVC110 22/20 A2995 RMK AO2 T02150198
K0R4 250555Z AUTO 17011KT 10SM SCT020 SCT085 OVC110 21/20 A2996 RMK AO2 T02110197 10231 20211 402750193
K0R4 250535Z AUTO 17009KT 10SM BKN020 BKN026 BKN085 21/20 A2996 RMK AO2 T02130197
K0R4 250515Z AUTO 17009KT 10SM -RA OVC020 22/20 A2997 RMK AO2 LTG DSNT NW T02150197
K0R4 250455Z AUTO 17008KT 10SM OVC020 22/20 A2997 RMK AO2 LTG DSNT NW T02150196
K0R4 250435Z AUTO 17008KT 10SM BKN020 BKN026 OVC120 22/20 A2996 RMK AO2 T02170197
K0R4 250415Z AUTO 18009KT 10SM BKN022 BKN026 OVC120 22/20 A2997 RMK AO2 T02200198
K0R4 250355Z AUTO 17010KT 10SM OVC022 22/20 A2997 RMK AO2 T02190196
K0R4 250335Z AUTO 17010KT 10SM BKN022 OVC028 22/20 A2996 RMK AO2 T02200197
K0R4 250315Z AUTO 18010KT 10SM BKN027 OVC032 22/20 A2997 RMK AO2 T02210198
K0R4 250255Z AUTO 17011KT 10SM SCT022 SCT031 22/20 A2996 RMK AO2 T02200195
K0R4 250235Z AUTO 17012KT 10SM SCT022 SCT028 SCT120 22/20 A2995 RMK AO2 T02210195
K0R4 250215Z AUTO 17013KT 10SM SCT022 SCT030 SCT120 22/19 A2995 RMK AO2 T02210194
K0R4 250155Z AUTO 18013KT 10SM SCT030 22/19 A2994 RMK AO2 T02230191
K0R4 250135Z AUTO 17012KT 10SM SCT037 23/19 A2993 RMK AO2 T02250192
K0R4 250115Z AUTO 17011KT 10SM SCT037 22/19 A2993 RMK AO2 T02230191
K0R4 250055Z AUTO 17009KT 10SM CLR 22/19 A2992 RMK AO2 T02220191
K0R4 250035Z AUTO 17010KT 10SM CLR 23/19 A2992 RMK AO2 T02290194
K0R4 250015Z AUTO 18013KT 10SM CLR 23/19 A2992 RMK AO2 T02310190
K0R4 242355Z AUTO 17012G16KT 10SM SCT110 23/18 A2992 RMK AO2 T02320183 10275 20232
K0R4 242335Z AUTO 17015G19KT 10SM SCT050 SCT065 OVC110 24/18 A2992 RMK AO2 T02440180
K0R4 242315Z AUTO 20012KT 10SM SCT050 BKN090 OVC110 24/18 A2992 RMK AO2 T02430182
K0R4 242255Z AUTO 19016KT 10SM BKN050 BKN060 OVC095 26/18 A2991 RMK AO2 T02550177
K0R4 242235Z AUTO 19017KT 10SM SCT050 SCT065 BKN095 26/18 A2991 RMK AO2 T02600179
K0R4 242215Z AUTO 19018G25KT 10SM SCT049 SCT080 BKN095 26/18 A2991 RMK AO2 T02610178
K0R4 242155Z AUTO 18015G26KT 10SM SCT049 SCT095 26/17 A2990 RMK AO2 T02620174
K0R4 242135Z AUTO 19024G28KT 10SM SCT049 SCT070 SCT080 27/18 A2990 RMK AO2 T02700180
K0R4 242115Z AUTO 19022G30KT 10SM SCT049 SCT055 BKN090 27/18 A2990 RMK AO2 T02700179
K0R4 242055Z AUTO 18019G28KT 10SM SCT055 SCT065 OVC090 27/18 A2989 RMK AO2 T02740184
K0R4 242035Z AUTO 18020G26KT 10SM SCT065 OVC090 26/18 A2990 RMK AO2 T02630180
K0R4 242015Z AUTO 17020G28KT 10SM SCT050 SCT065 BKN090 27/18 A2990 RMK AO2 T02690177
K0R4 241955Z AUTO 18019G25KT 10SM SCT050 SCT075 BKN090 27/18 A2990 RMK AO2 T02710178
K0R4 241935Z AUTO 18014KT 10SM SCT050 BKN075 BKN090 27/18 A2991 RMK AO2 T02670178
K0R4 241915Z AUTO 18021G26KT 10SM SCT048 SCT080 BKN090 27/18 A2993 RMK AO2 T02700180
K0R4 241855Z AUTO 17018KT 10SM SCT045 SCT070 BKN090 27/18 A2994 RMK AO2 T02660182
K0R4 241835Z AUTO 17018G23KT 10SM SCT045 BKN090 27/19 A2996 RMK AO2 T02690191
K0R4 241815Z AUTO 17015G25KT 10SM SCT041 BKN090 26/19 A2997 RMK AO2 T02630190
K0R4 241755Z AUTO 18015G22KT 10SM BKN090 27/19 A2999 RMK AO2 T02650189 10265 20194
K0R4 241735Z AUTO 17015G20KT 10SM BKN090 26/20 A3000 RMK AO2 T02580197
K0R4 241715Z AUTO 18014G21KT 10SM SCT031 BKN090 26/20 A3001 RMK AO2 T02550199
K0R4 241655Z AUTO 17017G21KT 10SM SCT029 SCT034 SCT040 26/20 A3002 RMK AO2 T02560202
K0R4 241635Z AUTO 17016KT 10SM SCT029 SCT034 SCT040 25/21 A3003 RMK AO2 T02520205
K0R4 241615Z AUTO 17014G17KT 10SM SCT024 SCT032 SCT038 25/21 A3004 RMK AO2 T02450209
K0R4 241555Z AUTO 18013G18KT 10SM BKN024 BKN032 BKN037 24/20 A3004 RMK AO2 T02390204
K0R4 241535Z AUTO 17013KT 10SM BKN020 BKN027 24/21 A3004 RMK AO2 T02360205
K0R4 241515Z AUTO 17012G16KT 10SM BKN018 BKN090 23/21 A3005 RMK AO2 LTG DSNT NW T02340206
K0R4 241455Z AUTO 17009KT 10SM BKN016 BKN021 OVC090 23/21 A3006 RMK AO2 T02260206
K0R4 241435Z AUTO 17006KT 10SM SCT014 OVC090 22/21 A3006 RMK AO2 T02240206
K0R4 241415Z AUTO 15005KT 7SM BKN014 OVC090 22/20 A3006 RMK AO2 T02160203
K0R4 241355Z AUTO 16003KT 7SM OVC014 21/20 A3006 RMK AO2 T02120201